sensor_id;sensor_type;location;lat;lon;timestamp;P1;durP1;ratioP1;P2;durP2;ratioP2
50367;SDS011;36281;34.132;-118.018;2023-02-28T00:01:44;1.65;;;1.52;;
50367;SDS011;36281;34.132;-118.018;2023-02-28T00:04:13;1.50;;;1.40;;
50367;SDS011;36281;34.132;-118.018;2023-02-28T00:06:42;1.40;;;1.30;;
50367;SDS011;36281;34.132;-118.018;2023-02-28T00:09:13;1.40;;;1.30;;
50367;SDS011;36281;34.132;-118.018;2023-02-28T00:11:42;1.55;;;1.45;;
50367;SDS011;36281;34.132;-118.018;2023-02-28T00:14:11;2.05;;;1.40;;
50367;SDS011;36281;34.132;-118.018;2023-02-28T00:16:40;1.48;;;1.38;;
50367;SDS011;36281;34.132;-118.018;2023-02-28T00:19:09;2.65;;;1.40;;
50367;SDS011;36281;34.132;-118.018;2023-02-28T00:21:40;1.63;;;1.30;;
50367;SDS011;36281;34.132;-118.018;2023-02-28T00:24:10;1.58;;;1.48;;
50367;SDS011;36281;34.132;-118.018;2023-02-28T00:26:41;1.60;;;1.50;;
50367;SDS011;36281;34.132;-118.018;2023-02-28T00:29:10;1.40;;;1.30;;
50367;SDS011;36281;34.132;-118.018;2023-02-28T00:31:39;1.67;;;1.58;;
50367;SDS011;36281;34.132;-118.018;2023-02-28T00:34:08;1.75;;;1.65;;
50367;SDS011;36281;34.132;-118.018;2023-02-28T00:36:37;2.30;;;1.67;;
50367;SDS011;36281;34.132;-118.018;2023-02-28T00:39:06;1.70;;;1.60;;
50367;SDS011;36281;34.132;-118.018;2023-02-28T00:41:35;2.08;;;1.70;;
50367;SDS011;36281;34.132;-118.018;2023-02-28T00:44:06;1.80;;;1.70;;
50367;SDS011;36281;34.132;-118.018;2023-02-28T00:46:35;2.10;;;1.88;;
50367;SDS011;36281;34.132;-118.018;2023-02-28T00:49:04;2.20;;;1.65;;
50367;SDS011;36281;34.132;-118.018;2023-02-28T00:51:33;1.70;;;1.60;;
50367;SDS011;36281;34.132;-118.018;2023-02-28T00:54:02;2.10;;;1.75;;
50367;SDS011;36281;34.132;-118.018;2023-02-28T00:56:31;1.73;;;1.63;;
50367;SDS011;36281;34.132;-118.018;2023-02-28T00:59:00;3.55;;;2.20;;
50367;SDS011;36281;34.132;-118.018;2023-02-28T01:01:31;2.28;;;1.90;;
50367;SDS011;36281;34.132;-118.018;2023-02-28T01:04:01;1.73;;;1.60;;
50367;SDS011;36281;34.132;-118.018;2023-02-28T01:06:33;1.75;;;1.65;;
50367;SDS011;36281;34.132;-118.018;2023-02-28T01:09:02;1.77;;;1.67;;
50367;SDS011;36281;34.132;-118.018;2023-02-28T01:11:32;2.75;;;1.67;;
50367;SDS011;36281;34.132;-118.018;2023-02-28T01:14:02;1.52;;;1.42;;
50367;SDS011;36281;34.132;-118.018;2023-02-28T01:16:33;3.25;;;2.03;;
50367;SDS011;36281;34.132;-118.018;2023-02-28T01:19:02;2.10;;;1.88;;
50367;SDS011;36281;34.132;-118.018;2023-02-28T01:21:31;1.80;;;1.70;;
50367;SDS011;36281;34.132;-118.018;2023-02-28T01:24:00;1.90;;;1.70;;
50367;SDS011;36281;34.132;-118.018;2023-02-28T01:26:30;2.00;;;1.80;;
50367;SDS011;36281;34.132;-118.018;2023-02-28T01:28:59;1.95;;;1.75;;
50367;SDS011;36281;34.132;-118.018;2023-02-28T01:31:28;1.67;;;1.58;;
50367;SDS011;36281;34.132;-118.018;2023-02-28T01:33:59;2.15;;;1.63;;
50367;SDS011;36281;34.132;-118.018;2023-02-28T01:36:29;1.80;;;1.70;;
50367;SDS011;36281;34.132;-118.018;2023-02-28T01:38:58;1.40;;;1.30;;
50367;SDS011;36281;34.132;-118.018;2023-02-28T01:41:27;1.70;;;1.60;;
50367;SDS011;36281;34.132;-118.018;2023-02-28T01:43:59;1.55;;;1.45;;
50367;SDS011;36281;34.132;-118.018;2023-02-28T01:46:31;1.70;;;1.60;;
50367;SDS011;36281;34.132;-118.018;2023-02-28T01:49:03;2.05;;;1.80;;
50367;SDS011;36281;34.132;-118.018;2023-02-28T01:51:38;2.40;;;2.03;;
50367;SDS011;36281;34.132;-118.018;2023-02-28T01:54:19;2.50;;;2.30;;
50367;SDS011;36281;34.132;-118.018;2023-02-28T01:56:56;2.00;;;1.85;;
50367;SDS011;36281;34.132;-118.018;2023-02-28T01:59:30;2.58;;;2.00;;
50367;SDS011;36281;34.132;-118.018;2023-02-28T02:02:03;2.17;;;1.92;;
50367;SDS011;36281;34.132;-118.018;2023-02-28T02:04:35;2.95;;;2.00;;
50367;SDS011;36281;34.132;-118.018;2023-02-28T02:07:07;2.42;;;2.10;;
50367;SDS011;36281;34.132;-118.018;2023-02-28T02:09:36;2.28;;;2.08;;
50367;SDS011;36281;34.132;-118.018;2023-02-28T02:12:15;2.20;;;2.00;;
50367;SDS011;36281;34.132;-118.018;2023-02-28T02:14:59;2.10;;;1.90;;
50367;SDS011;36281;34.132;-118.018;2023-02-28T02:17:34;3.15;;;2.17;;
50367;SDS011;36281;34.132;-118.018;2023-02-28T02:20:22;2.30;;;2.00;;
50367;SDS011;36281;34.132;-118.018;2023-02-28T02:23:22;3.00;;;2.70;;
50367;SDS011;36281;34.132;-118.018;2023-02-28T02:26:28;2.80;;;2.60;;
50367;SDS011;36281;34.132;-118.018;2023-02-28T02:34:49;2.38;;;2.17;;
50367;SDS011;36281;34.132;-118.018;2023-02-28T02:37:28;3.53;;;2.35;;
50367;SDS011;36281;34.132;-118.018;2023-02-28T02:40:07;2.60;;;2.20;;
50367;SDS011;36281;34.132;-118.018;2023-02-28T02:42:44;2.90;;;2.35;;
50367;SDS011;36281;34.132;-118.018;2023-02-28T02:45:19;2.40;;;2.20;;
50367;SDS011;36281;34.132;-118.018;2023-02-28T02:47:52;3.53;;;2.40;;
50367;SDS011;36281;34.132;-118.018;2023-02-28T02:50:26;3.00;;;2.40;;
50367;SDS011;36281;34.132;-118.018;2023-02-28T02:53:00;2.42;;;2.20;;
50367;SDS011;36281;34.132;-118.018;2023-02-28T02:55:31;4.60;;;2.53;;
50367;SDS011;36281;34.132;-118.018;2023-02-28T02:58:05;3.05;;;2.30;;
50367;SDS011;36281;34.132;-118.018;2023-02-28T03:00:39;2.92;;;2.42;;
50367;SDS011;36281;34.132;-118.018;2023-02-28T03:03:14;2.63;;;2.40;;
50367;SDS011;36281;34.132;-118.018;2023-02-28T03:05:50;3.00;;;2.70;;
50367;SDS011;36281;34.132;-118.018;2023-02-28T03:08:19;3.58;;;3.00;;
50367;SDS011;36281;34.132;-118.018;2023-02-28T03:10:48;3.75;;;2.90;;
50367;SDS011;36281;34.132;-118.018;2023-02-28T03:13:36;3.67;;;2.90;;
50367;SDS011;36281;34.132;-118.018;2023-02-28T03:16:23;3.08;;;2.72;;
50367;SDS011;36281;34.132;-118.018;2023-02-28T03:19:21;3.55;;;3.00;;
50367;SDS011;36281;34.132;-118.018;2023-02-28T03:22:19;3.47;;;2.60;;
50367;SDS011;36281;34.132;-118.018;2023-02-28T03:25:08;2.88;;;2.60;;
50367;SDS011;36281;34.132;-118.018;2023-02-28T03:27:48;3.58;;;2.70;;
50367;SDS011;36281;34.132;-118.018;2023-02-28T03:30:27;3.15;;;2.67;;
50367;SDS011;36281;34.132;-118.018;2023-02-28T03:33:03;3.38;;;3.00;;
50367;SDS011;36281;34.132;-118.018;2023-02-28T03:35:37;3.78;;;2.60;;
50367;SDS011;36281;34.132;-118.018;2023-02-28T03:38:12;3.38;;;2.70;;
50367;SDS011;36281;34.132;-118.018;2023-02-28T03:43:18;4.25;;;3.17;;
50367;SDS011;36281;34.132;-118.018;2023-02-28T03:45:51;3.63;;;3.00;;
50367;SDS011;36281;34.132;-118.018;2023-02-28T03:48:23;2.97;;;2.67;;
50367;SDS011;36281;34.132;-118.018;2023-02-28T03:50:58;3.28;;;2.95;;
50367;SDS011;36281;34.132;-118.018;2023-02-28T03:53:32;3.47;;;3.17;;
50367;SDS011;36281;34.132;-118.018;2023-02-28T03:56:05;5.07;;;3.30;;
50367;SDS011;36281;34.132;-118.018;2023-02-28T03:58:41;3.58;;;2.88;;
50367;SDS011;36281;34.132;-118.018;2023-02-28T04:01:16;3.50;;;3.20;;
50367;SDS011;36281;34.132;-118.018;2023-02-28T04:03:50;3.72;;;3.33;;
50367;SDS011;36281;34.132;-118.018;2023-02-28T04:06:19;3.80;;;3.28;;
50367;SDS011;36281;34.132;-118.018;2023-02-28T04:08:52;3.75;;;3.17;;
50367;SDS011;36281;34.132;-118.018;2023-02-28T04:11:22;4.20;;;3.80;;
50367;SDS011;36281;34.132;-118.018;2023-02-28T04:13:56;4.10;;;3.72;;
50367;SDS011;36281;34.132;-118.018;2023-02-28T04:16:25;4.47;;;4.07;;
50367;SDS011;36281;34.132;-118.018;2023-02-28T04:19:02;6.03;;;3.70;;
50367;SDS011;36281;34.132;-118.018;2023-02-28T04:21:33;4.82;;;3.60;;
50367;SDS011;36281;34.132;-118.018;2023-02-28T04:24:06;4.38;;;3.78;;
50367;SDS011;36281;34.132;-118.018;2023-02-28T04:26:36;6.00;;;3.35;;
50367;SDS011;36281;34.132;-118.018;2023-02-28T04:29:05;4.82;;;3.60;;
50367;SDS011;36281;34.132;-118.018;2023-02-28T04:31:35;6.18;;;4.57;;
50367;SDS011;36281;34.132;-118.018;2023-02-28T04:34:04;5.63;;;4.03;;
50367;SDS011;36281;34.132;-118.018;2023-02-28T04:36:33;6.32;;;3.50;;
50367;SDS011;36281;34.132;-118.018;2023-02-28T04:39:02;6.72;;;3.95;;
50367;SDS011;36281;34.132;-118.018;2023-02-28T04:41:33;5.80;;;3.70;;
50367;SDS011;36281;34.132;-118.018;2023-02-28T04:44:02;4.53;;;3.60;;
50367;SDS011;36281;34.132;-118.018;2023-02-28T04:46:31;5.22;;;3.60;;
50367;SDS011;36281;34.132;-118.018;2023-02-28T04:49:01;3.60;;;3.30;;
50367;SDS011;36281;34.132;-118.018;2023-02-28T04:51:30;4.63;;;3.53;;
50367;SDS011;36281;34.132;-118.018;2023-02-28T04:53:59;5.68;;;3.60;;
50367;SDS011;36281;34.132;-118.018;2023-02-28T04:56:30;3.92;;;3.60;;
50367;SDS011;36281;34.132;-118.018;2023-02-28T04:58:59;5.95;;;3.97;;
50367;SDS011;36281;34.132;-118.018;2023-02-28T05:01:28;3.78;;;3.22;;
50367;SDS011;36281;34.132;-118.018;2023-02-28T05:03:58;4.47;;;4.07;;
50367;SDS011;36281;34.132;-118.018;2023-02-28T05:06:29;4.45;;;3.90;;
50367;SDS011;36281;34.132;-118.018;2023-02-28T05:09:00;5.07;;;4.50;;
50367;SDS011;36281;34.132;-118.018;2023-02-28T05:11:31;5.85;;;5.03;;
50367;SDS011;36281;34.132;-118.018;2023-02-28T05:14:02;5.90;;;4.97;;
50367;SDS011;36281;34.132;-118.018;2023-02-28T05:16:33;5.00;;;4.50;;
50367;SDS011;36281;34.132;-118.018;2023-02-28T05:19:03;4.95;;;4.47;;
50367;SDS011;36281;34.132;-118.018;2023-02-28T05:21:33;4.95;;;4.45;;
50367;SDS011;36281;34.132;-118.018;2023-02-28T05:24:04;5.30;;;4.50;;
50367;SDS011;36281;34.132;-118.018;2023-02-28T05:26:37;5.18;;;4.68;;
50367;SDS011;36281;34.132;-118.018;2023-02-28T05:29:08;7.20;;;5.57;;
50367;SDS011;36281;34.132;-118.018;2023-02-28T05:31:38;5.75;;;5.15;;
50367;SDS011;36281;34.132;-118.018;2023-02-28T05:34:07;7.53;;;5.68;;
50367;SDS011;36281;34.132;-118.018;2023-02-28T05:36:38;6.88;;;5.57;;
50367;SDS011;36281;34.132;-118.018;2023-02-28T05:39:08;8.65;;;6.03;;
50367;SDS011;36281;34.132;-118.018;2023-02-28T05:41:42;11.15;;;6.38;;
50367;SDS011;36281;34.132;-118.018;2023-02-28T05:44:11;8.10;;;6.20;;
50367;SDS011;36281;34.132;-118.018;2023-02-28T05:46:40;6.43;;;5.53;;
50367;SDS011;36281;34.132;-118.018;2023-02-28T05:49:09;6.60;;;5.70;;
50367;SDS011;36281;34.132;-118.018;2023-02-28T05:51:39;6.78;;;6.07;;
50367;SDS011;36281;34.132;-118.018;2023-02-28T05:54:08;6.78;;;5.80;;
50367;SDS011;36281;34.132;-118.018;2023-02-28T05:56:39;7.30;;;6.00;;
50367;SDS011;36281;34.132;-118.018;2023-02-28T05:59:13;7.82;;;6.25;;
50367;SDS011;36281;34.132;-118.018;2023-02-28T06:01:42;6.45;;;5.57;;
50367;SDS011;36281;34.132;-118.018;2023-02-28T06:04:20;7.82;;;5.65;;
50367;SDS011;36281;34.132;-118.018;2023-02-28T06:06:57;6.65;;;5.30;;
50367;SDS011;36281;34.132;-118.018;2023-02-28T06:09:27;6.72;;;5.95;;
50367;SDS011;36281;34.132;-118.018;2023-02-28T06:11:59;7.82;;;5.95;;
50367;SDS011;36281;34.132;-118.018;2023-02-28T06:14:31;7.63;;;5.95;;
50367;SDS011;36281;34.132;-118.018;2023-02-28T06:17:01;6.93;;;5.63;;
50367;SDS011;36281;34.132;-118.018;2023-02-28T06:19:31;7.22;;;6.53;;
50367;SDS011;36281;34.132;-118.018;2023-02-28T06:22:00;7.28;;;6.40;;
50367;SDS011;36281;34.132;-118.018;2023-02-28T06:24:29;8.43;;;6.88;;
50367;SDS011;36281;34.132;-118.018;2023-02-28T06:27:00;8.63;;;6.90;;
50367;SDS011;36281;34.132;-118.018;2023-02-28T06:29:32;9.38;;;6.95;;
50367;SDS011;36281;34.132;-118.018;2023-02-28T06:32:02;8.15;;;7.30;;
50367;SDS011;36281;34.132;-118.018;2023-02-28T06:34:31;8.32;;;7.32;;
50367;SDS011;36281;34.132;-118.018;2023-02-28T06:37:01;9.23;;;6.75;;
50367;SDS011;36281;34.132;-118.018;2023-02-28T06:39:30;8.45;;;7.25;;
50367;SDS011;36281;34.132;-118.018;2023-02-28T06:42:01;8.60;;;7.35;;
50367;SDS011;36281;34.132;-118.018;2023-02-28T06:44:31;10.35;;;7.25;;
50367;SDS011;36281;34.132;-118.018;2023-02-28T06:47:03;8.02;;;7.22;;
50367;SDS011;36281;34.132;-118.018;2023-02-28T06:49:33;8.43;;;7.30;;
50367;SDS011;36281;34.132;-118.018;2023-02-28T06:52:03;9.30;;;7.72;;
50367;SDS011;36281;34.132;-118.018;2023-02-28T06:54:32;9.60;;;8.50;;
50367;SDS011;36281;34.132;-118.018;2023-02-28T06:57:03;8.95;;;7.65;;
50367;SDS011;36281;34.132;-118.018;2023-02-28T06:59:32;8.65;;;7.75;;
50367;SDS011;36281;34.132;-118.018;2023-02-28T07:02:02;9.35;;;8.20;;
50367;SDS011;36281;34.132;-118.018;2023-02-28T07:04:34;10.82;;;8.18;;
50367;SDS011;36281;34.132;-118.018;2023-02-28T07:07:03;8.90;;;8.00;;
50367;SDS011;36281;34.132;-118.018;2023-02-28T07:09:32;8.82;;;7.93;;
50367;SDS011;36281;34.132;-118.018;2023-02-28T07:12:01;9.13;;;8.02;;
50367;SDS011;36281;34.132;-118.018;2023-02-28T07:14:32;9.70;;;7.53;;
50367;SDS011;36281;34.132;-118.018;2023-02-28T07:17:01;8.35;;;7.53;;
50367;SDS011;36281;34.132;-118.018;2023-02-28T07:19:30;11.60;;;8.10;;
50367;SDS011;36281;34.132;-118.018;2023-02-28T07:21:59;11.20;;;8.23;;
50367;SDS011;36281;34.132;-118.018;2023-02-28T07:24:29;8.75;;;7.43;;
50367;SDS011;36281;34.132;-118.018;2023-02-28T07:26:58;8.45;;;7.65;;
50367;SDS011;36281;34.132;-118.018;2023-02-28T07:29:28;9.98;;;8.43;;
50367;SDS011;36281;34.132;-118.018;2023-02-28T07:31:57;10.10;;;8.38;;
50367;SDS011;36281;34.132;-118.018;2023-02-28T07:34:27;8.88;;;7.97;;
50367;SDS011;36281;34.132;-118.018;2023-02-28T07:36:56;10.27;;;8.30;;
50367;SDS011;36281;34.132;-118.018;2023-02-28T07:39:25;10.00;;;8.23;;
50367;SDS011;36281;34.132;-118.018;2023-02-28T07:41:54;8.65;;;7.75;;
50367;SDS011;36281;34.132;-118.018;2023-02-28T07:44:23;8.18;;;7.38;;
50367;SDS011;36281;34.132;-118.018;2023-02-28T07:46:53;9.52;;;8.52;;
50367;SDS011;36281;34.132;-118.018;2023-02-28T07:49:22;10.25;;;8.15;;
50367;SDS011;36281;34.132;-118.018;2023-02-28T07:51:51;10.43;;;8.98;;
50367;SDS011;36281;34.132;-118.018;2023-02-28T07:54:20;8.15;;;7.35;;
50367;SDS011;36281;34.132;-118.018;2023-02-28T07:56:49;10.13;;;7.78;;
50367;SDS011;36281;34.132;-118.018;2023-02-28T07:59:18;8.65;;;7.30;;
50367;SDS011;36281;34.132;-118.018;2023-02-28T08:01:47;9.27;;;8.13;;
50367;SDS011;36281;34.132;-118.018;2023-02-28T08:04:19;9.95;;;8.32;;
50367;SDS011;36281;34.132;-118.018;2023-02-28T08:06:48;10.32;;;7.95;;
50367;SDS011;36281;34.132;-118.018;2023-02-28T08:09:19;9.77;;;8.18;;
50367;SDS011;36281;34.132;-118.018;2023-02-28T08:11:48;11.68;;;9.10;;
50367;SDS011;36281;34.132;-118.018;2023-02-28T08:14:17;10.63;;;8.52;;
50367;SDS011;36281;34.132;-118.018;2023-02-28T08:16:46;10.73;;;9.13;;
50367;SDS011;36281;34.132;-118.018;2023-02-28T08:19:15;10.88;;;8.35;;
50367;SDS011;36281;34.132;-118.018;2023-02-28T08:21:46;10.80;;;8.57;;
50367;SDS011;36281;34.132;-118.018;2023-02-28T08:24:15;10.30;;;8.70;;
50367;SDS011;36281;34.132;-118.018;2023-02-28T08:26:44;11.38;;;8.43;;
50367;SDS011;36281;34.132;-118.018;2023-02-28T08:29:13;10.25;;;8.35;;
50367;SDS011;36281;34.132;-118.018;2023-02-28T08:31:43;10.40;;;8.00;;
50367;SDS011;36281;34.132;-118.018;2023-02-28T08:34:12;10.48;;;7.60;;
50367;SDS011;36281;34.132;-118.018;2023-02-28T08:36:42;9.60;;;7.50;;
50367;SDS011;36281;34.132;-118.018;2023-02-28T08:39:16;9.35;;;7.57;;
50367;SDS011;36281;34.132;-118.018;2023-02-28T08:41:47;10.52;;;7.70;;
50367;SDS011;36281;34.132;-118.018;2023-02-28T08:44:32;9.65;;;7.03;;
50367;SDS011;36281;34.132;-118.018;2023-02-28T08:47:01;9.40;;;6.38;;
50367;SDS011;36281;34.132;-118.018;2023-02-28T08:49:31;8.75;;;6.63;;
50367;SDS011;36281;34.132;-118.018;2023-02-28T08:52:00;10.77;;;6.70;;
50367;SDS011;36281;34.132;-118.018;2023-02-28T08:54:30;8.75;;;6.68;;
50367;SDS011;36281;34.132;-118.018;2023-02-28T08:57:00;8.13;;;6.82;;
50367;SDS011;36281;34.132;-118.018;2023-02-28T08:59:30;10.10;;;7.13;;
50367;SDS011;36281;34.132;-118.018;2023-02-28T09:02:00;7.28;;;6.00;;
50367;SDS011;36281;34.132;-118.018;2023-02-28T09:04:28;8.88;;;6.40;;
50367;SDS011;36281;34.132;-118.018;2023-02-28T09:07:00;6.13;;;5.53;;
50367;SDS011;36281;34.132;-118.018;2023-02-28T09:09:31;7.13;;;5.35;;
50367;SDS011;36281;34.132;-118.018;2023-02-28T09:12:00;7.43;;;5.47;;
50367;SDS011;36281;34.132;-118.018;2023-02-28T09:14:29;7.72;;;5.70;;
50367;SDS011;36281;34.132;-118.018;2023-02-28T09:16:58;5.70;;;4.97;;
50367;SDS011;36281;34.132;-118.018;2023-02-28T09:19:27;8.13;;;5.63;;
50367;SDS011;36281;34.132;-118.018;2023-02-28T09:21:56;5.07;;;4.43;;
50367;SDS011;36281;34.132;-118.018;2023-02-28T09:24:25;4.72;;;4.00;;
50367;SDS011;36281;34.132;-118.018;2023-02-28T09:26:56;6.22;;;4.20;;
50367;SDS011;36281;34.132;-118.018;2023-02-28T09:29:31;3.75;;;3.33;;
50367;SDS011;36281;34.132;-118.018;2023-02-28T09:32:00;5.20;;;3.40;;
50367;SDS011;36281;34.132;-118.018;2023-02-28T09:34:30;3.53;;;3.20;;
50367;SDS011;36281;34.132;-118.018;2023-02-28T09:36:59;5.70;;;3.20;;
50367;SDS011;36281;34.132;-118.018;2023-02-28T09:39:28;3.15;;;2.60;;
50367;SDS011;36281;34.132;-118.018;2023-02-28T09:41:59;2.92;;;2.35;;
50367;SDS011;36281;34.132;-118.018;2023-02-28T09:44:31;3.50;;;2.40;;
50367;SDS011;36281;34.132;-118.018;2023-02-28T09:47:07;2.60;;;2.08;;
50367;SDS011;36281;34.132;-118.018;2023-02-28T09:49:42;2.40;;;2.20;;
50367;SDS011;36281;34.132;-118.018;2023-02-28T09:52:15;2.00;;;1.90;;
50367;SDS011;36281;34.132;-118.018;2023-02-28T09:54:47;3.20;;;1.90;;
50367;SDS011;36281;34.132;-118.018;2023-02-28T09:57:19;2.42;;;2.00;;
50367;SDS011;36281;34.132;-118.018;2023-02-28T10:00:10;2.25;;;1.98;;
50367;SDS011;36281;34.132;-118.018;2023-02-28T10:02:57;3.05;;;1.88;;
50367;SDS011;36281;34.132;-118.018;2023-02-28T10:05:41;2.58;;;1.90;;
50367;SDS011;36281;34.132;-118.018;2023-02-28T10:08:18;3.17;;;1.83;;
50367;SDS011;36281;34.132;-118.018;2023-02-28T10:10:54;3.05;;;1.80;;
50367;SDS011;36281;34.132;-118.018;2023-02-28T10:13:28;2.38;;;1.80;;
50367;SDS011;36281;34.132;-118.018;2023-02-28T10:16:03;1.85;;;1.75;;
50367;SDS011;36281;34.132;-118.018;2023-02-28T10:18:38;2.45;;;1.90;;
50367;SDS011;36281;34.132;-118.018;2023-02-28T10:21:15;2.00;;;1.67;;
50367;SDS011;36281;34.132;-118.018;2023-02-28T10:23:48;3.80;;;2.10;;
50367;SDS011;36281;34.132;-118.018;2023-02-28T10:26:24;2.67;;;2.10;;
50367;SDS011;36281;34.132;-118.018;2023-02-28T10:28:59;3.53;;;2.30;;
50367;SDS011;36281;34.132;-118.018;2023-02-28T10:31:32;3.95;;;2.22;;
50367;SDS011;36281;34.132;-118.018;2023-02-28T10:34:01;2.88;;;2.35;;
50367;SDS011;36281;34.132;-118.018;2023-02-28T10:36:31;2.90;;;2.60;;
50367;SDS011;36281;34.132;-118.018;2023-02-28T10:42:18;3.33;;;2.67;;
50367;SDS011;36281;34.132;-118.018;2023-02-28T10:44:51;2.67;;;2.42;;
50367;SDS011;36281;34.132;-118.018;2023-02-28T10:47:34;5.22;;;2.22;;
50367;SDS011;36281;34.132;-118.018;2023-02-28T10:50:25;2.53;;;2.30;;
50367;SDS011;36281;34.132;-118.018;2023-02-28T10:53:00;2.90;;;2.45;;
50367;SDS011;36281;34.132;-118.018;2023-02-28T10:55:42;3.47;;;2.60;;
50367;SDS011;36281;34.132;-118.018;2023-02-28T10:58:20;5.22;;;2.50;;
50367;SDS011;36281;34.132;-118.018;2023-02-28T11:00:52;3.80;;;2.42;;
50367;SDS011;36281;34.132;-118.018;2023-02-28T11:03:28;3.30;;;2.78;;
50367;SDS011;36281;34.132;-118.018;2023-02-28T11:06:03;2.88;;;2.55;;
50367;SDS011;36281;34.132;-118.018;2023-02-28T11:08:34;2.95;;;2.58;;
50367;SDS011;36281;34.132;-118.018;2023-02-28T11:11:14;3.67;;;2.95;;
50367;SDS011;36281;34.132;-118.018;2023-02-28T11:13:45;3.72;;;2.75;;
50367;SDS011;36281;34.132;-118.018;2023-02-28T11:16:19;3.30;;;2.70;;
50367;SDS011;36281;34.132;-118.018;2023-02-28T11:18:50;4.10;;;3.05;;
50367;SDS011;36281;34.132;-118.018;2023-02-28T11:21:23;3.08;;;2.78;;
50367;SDS011;36281;34.132;-118.018;2023-02-28T11:23:56;3.67;;;2.70;;
50367;SDS011;36281;34.132;-118.018;2023-02-28T11:26:37;3.30;;;2.58;;
50367;SDS011;36281;34.132;-118.018;2023-02-28T11:29:09;3.25;;;2.47;;
50367;SDS011;36281;34.132;-118.018;2023-02-28T11:31:48;2.60;;;2.40;;
50367;SDS011;36281;34.132;-118.018;2023-02-28T11:34:31;2.65;;;2.42;;
50367;SDS011;36281;34.132;-118.018;2023-02-28T11:37:00;2.95;;;2.50;;
50367;SDS011;36281;34.132;-118.018;2023-02-28T11:39:33;3.35;;;2.30;;
50367;SDS011;36281;34.132;-118.018;2023-02-28T11:42:13;3.15;;;2.47;;
50367;SDS011;36281;34.132;-118.018;2023-02-28T11:44:59;3.08;;;2.33;;
50367;SDS011;36281;34.132;-118.018;2023-02-28T11:47:42;3.92;;;2.40;;
50367;SDS011;36281;34.132;-118.018;2023-02-28T11:50:28;2.57;;;2.37;;
50367;SDS011;36281;34.132;-118.018;2023-02-28T11:53:16;3.40;;;2.75;;
50367;SDS011;36281;34.132;-118.018;2023-02-28T11:55:54;4.85;;;2.90;;
50367;SDS011;36281;34.132;-118.018;2023-02-28T11:58:34;3.78;;;2.70;;
50367;SDS011;36281;34.132;-118.018;2023-02-28T12:01:17;3.90;;;2.90;;
50367;SDS011;36281;34.132;-118.018;2023-02-28T12:04:11;2.97;;;2.60;;
50367;SDS011;36281;34.132;-118.018;2023-02-28T12:06:51;3.70;;;2.70;;
50367;SDS011;36281;34.132;-118.018;2023-02-28T12:09:32;4.22;;;3.10;;
50367;SDS011;36281;34.132;-118.018;2023-02-28T12:12:11;4.32;;;2.90;;
50367;SDS011;36281;34.132;-118.018;2023-02-28T12:14:56;2.92;;;2.63;;
50367;SDS011;36281;34.132;-118.018;2023-02-28T12:17:47;3.25;;;2.70;;
50367;SDS011;36281;34.132;-118.018;2023-02-28T12:20:30;5.28;;;3.25;;
50367;SDS011;36281;34.132;-118.018;2023-02-28T12:23:11;3.28;;;2.80;;
50367;SDS011;36281;34.132;-118.018;2023-02-28T12:26:00;3.17;;;2.60;;
50367;SDS011;36281;34.132;-118.018;2023-02-28T12:28:38;3.15;;;2.75;;
50367;SDS011;36281;34.132;-118.018;2023-02-28T12:31:11;3.08;;;2.55;;
50367;SDS011;36281;34.132;-118.018;2023-02-28T12:33:46;3.13;;;2.83;;
50367;SDS011;36281;34.132;-118.018;2023-02-28T12:36:20;4.25;;;2.80;;
50367;SDS011;36281;34.132;-118.018;2023-02-28T12:38:51;3.60;;;2.67;;
50367;SDS011;36281;34.132;-118.018;2023-02-28T12:41:26;4.07;;;3.13;;
50367;SDS011;36281;34.132;-118.018;2023-02-28T12:44:02;3.95;;;3.05;;
50367;SDS011;36281;34.132;-118.018;2023-02-28T12:46:37;3.78;;;2.70;;
50367;SDS011;36281;34.132;-118.018;2023-02-28T12:49:10;3.67;;;2.90;;
50367;SDS011;36281;34.132;-118.018;2023-02-28T12:51:45;2.90;;;2.58;;
50367;SDS011;36281;34.132;-118.018;2023-02-28T12:54:18;3.28;;;2.80;;
50367;SDS011;36281;34.132;-118.018;2023-02-28T12:56:54;4.05;;;2.70;;
50367;SDS011;36281;34.132;-118.018;2023-02-28T12:59:34;4.97;;;2.95;;
50367;SDS011;36281;34.132;-118.018;2023-02-28T13:05:07;4.65;;;2.88;;
50367;SDS011;36281;34.132;-118.018;2023-02-28T13:08:20;3.40;;;2.55;;
50367;SDS011;36281;34.132;-118.018;2023-02-28T13:11:05;4.18;;;2.70;;
50367;SDS011;36281;34.132;-118.018;2023-02-28T13:13:47;3.20;;;2.70;;
50367;SDS011;36281;34.132;-118.018;2023-02-28T13:16:16;4.43;;;3.33;;
50367;SDS011;36281;34.132;-118.018;2023-02-28T13:18:45;4.30;;;2.97;;
50367;SDS011;36281;34.132;-118.018;2023-02-28T13:21:22;3.47;;;2.88;;
50367;SDS011;36281;34.132;-118.018;2023-02-28T13:24:02;4.82;;;3.05;;
50367;SDS011;36281;34.132;-118.018;2023-02-28T13:29:43;3.67;;;3.05;;
50367;SDS011;36281;34.132;-118.018;2023-02-28T13:38:21;4.20;;;3.28;;
50367;SDS011;36281;34.132;-118.018;2023-02-28T13:44:16;4.88;;;3.63;;
50367;SDS011;36281;34.132;-118.018;2023-02-28T13:55:59;4.35;;;3.80;;
50367;SDS011;36281;34.132;-118.018;2023-02-28T13:58:48;4.43;;;3.55;;
50367;SDS011;36281;34.132;-118.018;2023-02-28T14:01:28;6.05;;;4.05;;
50367;SDS011;36281;34.132;-118.018;2023-02-28T14:04:21;7.93;;;4.40;;
50367;SDS011;36281;34.132;-118.018;2023-02-28T14:07:15;7.57;;;4.75;;
50367;SDS011;36281;34.132;-118.018;2023-02-28T14:09:49;6.70;;;4.57;;
50367;SDS011;36281;34.132;-118.018;2023-02-28T14:15:38;5.80;;;4.50;;
50367;SDS011;36281;34.132;-118.018;2023-02-28T14:18:26;6.22;;;4.25;;
50367;SDS011;36281;34.132;-118.018;2023-02-28T14:21:03;4.80;;;3.97;;
50367;SDS011;36281;34.132;-118.018;2023-02-28T14:23:55;6.55;;;4.45;;
50367;SDS011;36281;34.132;-118.018;2023-02-28T14:26:52;7.93;;;4.63;;
50367;SDS011;36281;34.132;-118.018;2023-02-28T14:29:55;4.93;;;3.83;;
50367;SDS011;36281;34.132;-118.018;2023-02-28T14:32:43;5.28;;;3.88;;
50367;SDS011;36281;34.132;-118.018;2023-02-28T14:35:35;5.38;;;3.75;;
50367;SDS011;36281;34.132;-118.018;2023-02-28T14:38:13;5.15;;;3.65;;
50367;SDS011;36281;34.132;-118.018;2023-02-28T14:40:46;5.45;;;3.92;;
50367;SDS011;36281;34.132;-118.018;2023-02-28T14:43:20;5.07;;;3.85;;
50367;SDS011;36281;34.132;-118.018;2023-02-28T14:45:50;5.40;;;4.15;;
50367;SDS011;36281;34.132;-118.018;2023-02-28T14:48:24;6.00;;;3.80;;
50367;SDS011;36281;34.132;-118.018;2023-02-28T14:50:54;4.70;;;3.50;;
50367;SDS011;36281;34.132;-118.018;2023-02-28T14:53:27;4.18;;;3.47;;
50367;SDS011;36281;34.132;-118.018;2023-02-28T14:55:58;5.00;;;3.60;;
50367;SDS011;36281;34.132;-118.018;2023-02-28T14:58:28;5.15;;;4.00;;
50367;SDS011;36281;34.132;-118.018;2023-02-28T15:01:00;5.40;;;3.78;;
50367;SDS011;36281;34.132;-118.018;2023-02-28T15:03:32;4.00;;;3.60;;
50367;SDS011;36281;34.132;-118.018;2023-02-28T15:06:03;4.22;;;3.50;;
50367;SDS011;36281;34.132;-118.018;2023-02-28T15:08:33;5.07;;;3.70;;
50367;SDS011;36281;34.132;-118.018;2023-02-28T15:11:04;4.53;;;3.50;;
50367;SDS011;36281;34.132;-118.018;2023-02-28T15:13:36;4.38;;;3.33;;
50367;SDS011;36281;34.132;-118.018;2023-02-28T15:16:08;6.13;;;4.15;;
50367;SDS011;36281;34.132;-118.018;2023-02-28T15:18:44;7.80;;;3.92;;
50367;SDS011;36281;34.132;-118.018;2023-02-28T15:21:17;4.22;;;3.58;;
50367;SDS011;36281;34.132;-118.018;2023-02-28T15:23:49;4.05;;;3.30;;
50367;SDS011;36281;34.132;-118.018;2023-02-28T15:26:22;4.75;;;3.40;;